createdAt,value
2019-01-20T00:01:57.415Z,26.40
2019-01-20T00:04:32.966Z,25.27
2019-01-20T00:07:25.011Z,25.63
2019-01-20T00:09:55.561Z,25.60
2019-01-20T00:12:25.944Z,25.63
2019-01-20T00:14:57.851Z,26.73
2019-01-20T00:17:27.949Z,28.97
2019-01-20T00:19:58.077Z,29.93
2019-01-20T00:22:29.456Z,27.63
2019-01-20T00:25:16.282Z,27.37
2019-01-20T00:27:46.867Z,28.03
2019-01-20T00:30:25.016Z,24.87
2019-01-20T00:32:55.417Z,27.87
2019-01-20T00:35:25.551Z,28.60
2019-01-20T00:37:55.566Z,27.47
2019-01-20T00:40:25.566Z,27.13
2019-01-20T00:42:55.670Z,28.27
2019-01-20T00:45:25.745Z,28.83
2019-01-20T00:47:55.965Z,29.93
2019-01-20T00:50:26.146Z,28.30
2019-01-20T00:52:56.430Z,28.90
2019-01-20T00:55:26.467Z,29.23
2019-01-20T00:57:57.951Z,28.57
2019-01-20T01:00:31.382Z,27.97
2019-01-20T01:03:01.577Z,29.90
2019-01-20T01:05:36.896Z,32.50
2019-01-20T01:08:10.110Z,27.83
2019-01-20T01:10:40.160Z,31.43
2019-01-20T01:13:12.113Z,30.93
2019-01-20T01:15:42.055Z,28.40
2019-01-20T01:18:12.074Z,26.67
2019-01-20T01:20:42.129Z,29.20
2019-01-20T01:23:12.222Z,27.73
2019-01-20T01:25:42.241Z,29.10
2019-01-20T01:28:12.591Z,30.67
2019-01-20T01:33:33.825Z,27.73
2019-01-20T01:36:03.913Z,28.60
2019-01-20T01:38:34.769Z,32.33
2019-01-20T01:41:23.227Z,28.67
2019-01-20T01:43:57.640Z,29.97
2019-01-20T01:46:27.630Z,30.03
2019-01-20T01:48:57.574Z,33.73
2019-01-20T01:51:27.582Z,34.27
2019-01-20T01:53:57.651Z,33.67
2019-01-20T01:56:27.753Z,33.13
2019-01-20T01:58:57.678Z,29.17
2019-01-20T02:01:27.723Z,30.27
2019-01-20T02:03:57.775Z,30.80
2019-01-20T02:06:27.803Z,35.23
2019-01-20T02:08:58.004Z,33.67
2019-01-20T02:11:28.130Z,31.17
2019-01-20T02:13:58.167Z,29.50
2019-01-20T02:16:28.184Z,30.43
2019-01-20T02:18:58.118Z,34.20
2019-01-20T02:21:28.313Z,34.53
2019-01-20T02:23:58.246Z,30.20
2019-01-20T02:26:28.263Z,35.17
2019-01-20T02:28:58.277Z,32.80
2019-01-20T02:31:28.394Z,34.50
2019-01-20T02:33:58.336Z,32.90
2019-01-20T02:36:28.426Z,34.80
2019-01-20T02:38:58.392Z,34.10
2019-01-20T02:41:28.563Z,32.13
2019-01-20T02:43:58.570Z,33.70
2019-01-20T02:46:28.502Z,34.87
2019-01-20T02:48:58.499Z,34.03
2019-01-20T02:51:28.732Z,33.00
2019-01-20T02:53:58.827Z,37.27
2019-01-20T02:56:28.788Z,33.00
2019-01-20T02:58:58.797Z,33.80
2019-01-20T03:01:28.735Z,33.17
2019-01-20T03:03:58.833Z,35.10
2019-01-20T03:06:44.940Z,34.57
2019-01-20T03:09:14.939Z,37.13
2019-01-20T03:11:44.922Z,33.70
2019-01-20T03:14:14.862Z,35.97
2019-01-20T03:16:44.865Z,33.97
2019-01-20T03:19:14.891Z,33.03
2019-01-20T03:21:45.007Z,34.30
2019-01-20T03:24:15.124Z,35.87
2019-01-20T03:26:45.053Z,34.60
2019-01-20T03:29:15.175Z,34.97
2019-01-20T03:31:45.102Z,41.33
2019-01-20T03:34:15.102Z,39.03
2019-01-20T03:36:45.207Z,34.90
2019-01-20T03:39:15.317Z,38.37
2019-01-20T03:41:45.544Z,36.17
2019-01-20T03:44:21.172Z,37.90
2019-01-20T03:46:53.309Z,35.20
2019-01-20T03:49:23.456Z,34.47
2019-01-20T03:51:53.483Z,35.23
2019-01-20T03:54:23.574Z,36.47
2019-01-20T03:56:53.513Z,37.30
2019-01-20T03:59:23.732Z,42.83
2019-01-20T04:01:53.911Z,39.33
2019-01-20T04:04:24.016Z,41.47
2019-01-20T04:06:54.313Z,41.10
2019-01-20T04:09:24.241Z,42.90
2019-01-20T04:11:54.338Z,37.07
2019-01-20T04:14:24.328Z,40.07
2019-01-20T04:16:54.335Z,38.37
2019-01-20T04:19:24.386Z,41.23
2019-01-20T04:21:54.491Z,40.07
2019-01-20T04:24:24.526Z,41.40
2019-01-20T04:26:54.634Z,40.93
2019-01-20T04:29:25.058Z,42.10
2019-01-20T04:31:55.056Z,41.13
2019-01-20T04:34:25.150Z,44.77
2019-01-20T04:36:55.247Z,44.90
2019-01-20T04:39:25.203Z,45.80
2019-01-20T04:41:55.205Z,52.47
2019-01-20T04:44:25.222Z,44.60
2019-01-20T04:46:55.354Z,47.10
2019-01-20T04:49:25.459Z,49.77
2019-01-20T04:51:55.548Z,43.10
2019-01-20T04:54:25.594Z,51.37
2019-01-20T04:56:55.691Z,44.37
2019-01-20T04:59:25.732Z,48.33
2019-01-20T05:01:55.660Z,51.77
2019-01-20T05:04:25.663Z,50.67
2019-01-20T05:06:55.598Z,65.83
2019-01-20T05:09:25.696Z,48.03
2019-01-20T05:11:55.696Z,52.60
2019-01-20T05:14:25.667Z,44.20
2019-01-20T05:16:55.788Z,50.70
2019-01-20T05:19:25.909Z,45.40
2019-01-20T05:21:55.901Z,49.93
2019-01-20T05:24:25.904Z,43.77
2019-01-20T05:26:55.924Z,47.53
2019-01-20T05:29:25.870Z,44.40
2019-01-20T05:31:55.870Z,45.10
2019-01-20T05:34:25.904Z,44.47
2019-01-20T05:36:55.990Z,43.03
2019-01-20T05:39:25.930Z,43.03
2019-01-20T05:41:56.005Z,51.20
2019-01-20T05:44:26.161Z,40.57
2019-01-20T05:46:57.480Z,44.20
2019-01-20T05:49:27.715Z,50.93
2019-01-20T05:51:57.824Z,44.63
2019-01-20T05:54:27.769Z,47.87
2019-01-20T05:56:57.704Z,45.20
2019-01-20T05:59:27.832Z,42.53
2019-01-20T06:01:58.009Z,41.70
2019-01-20T06:04:28.291Z,40.87
2019-01-20T06:06:58.386Z,41.70
2019-01-20T06:09:28.326Z,40.93
2019-01-20T06:11:58.320Z,42.70
2019-01-20T06:14:28.265Z,47.70
2019-01-20T06:16:58.265Z,42.30
2019-01-20T06:19:28.192Z,45.03
2019-01-20T06:21:58.296Z,44.00
2019-01-20T06:24:28.229Z,44.93
2019-01-20T06:26:58.238Z,47.20
2019-01-20T06:29:28.166Z,46.07
2019-01-20T06:31:58.169Z,46.10
2019-01-20T06:34:28.214Z,44.80
2019-01-20T06:36:58.407Z,47.87
2019-01-20T06:39:29.834Z,46.00
2019-01-20T06:41:59.826Z,46.73
2019-01-20T06:44:29.761Z,56.40
2019-01-20T06:47:01.117Z,58.87
2019-01-20T06:49:31.569Z,53.43
2019-01-20T06:52:01.560Z,49.67
2019-01-20T06:54:31.653Z,50.73
2019-01-20T06:57:01.655Z,50.17
2019-01-20T06:59:31.745Z,46.67
2019-01-20T07:02:01.836Z,49.63
2019-01-20T07:04:34.407Z,53.20
2019-01-20T07:07:04.597Z,54.53
2019-01-20T07:09:45.541Z,49.27
2019-01-20T07:12:15.644Z,47.77
2019-01-20T07:14:45.602Z,50.77
2019-01-20T07:17:15.791Z,48.00
2019-01-20T07:19:45.735Z,50.50
2019-01-20T07:22:15.813Z,54.17
2019-01-20T07:24:45.977Z,51.60
2019-01-20T07:27:17.918Z,52.40
2019-01-20T07:33:35.231Z,43.23
2019-01-20T07:39:27.433Z,68.27
2019-01-20T07:41:57.510Z,77.27
2019-01-20T07:44:27.443Z,82.87
2019-01-20T07:46:57.447Z,73.63
2019-01-20T07:49:27.485Z,55.37
2019-01-20T07:51:57.505Z,60.03
2019-01-20T07:54:27.488Z,53.70
2019-01-20T07:56:57.515Z,56.43
2019-01-20T07:59:27.462Z,52.73
2019-01-20T08:02:01.907Z,53.20
2019-01-20T08:04:31.848Z,57.27
2019-01-20T08:07:01.891Z,51.60
2019-01-20T08:09:32.035Z,51.27
2019-01-20T08:12:02.371Z,50.30
2019-01-20T08:14:36.796Z,54.90
2019-01-20T08:17:08.026Z,55.07
2019-01-20T08:19:38.146Z,47.27
2019-01-20T08:22:10.887Z,51.40
2019-01-20T08:24:41.037Z,49.27
2019-01-20T08:27:10.977Z,48.60
2019-01-20T08:29:40.985Z,47.10
2019-01-20T08:32:10.905Z,50.20
2019-01-20T08:34:40.881Z,49.27
2019-01-20T08:37:10.807Z,44.07
2019-01-20T08:39:40.776Z,46.50
2019-01-20T08:42:10.691Z,48.10
2019-01-20T08:44:40.730Z,50.23
2019-01-20T08:47:16.776Z,46.50
2019-01-20T08:49:46.797Z,49.83
2019-01-20T08:52:16.726Z,44.73
2019-01-20T08:54:46.743Z,47.13
2019-01-20T08:57:16.687Z,49.13
2019-01-20T08:59:46.701Z,40.40
2019-01-20T09:02:16.685Z,44.97
2019-01-20T09:04:47.694Z,46.77
2019-01-20T09:07:17.724Z,43.93
2019-01-20T09:09:47.709Z,44.70
2019-01-20T09:12:17.622Z,48.57
2019-01-20T09:14:47.610Z,44.33
2019-01-20T09:17:17.686Z,44.70
2019-01-20T09:19:47.693Z,45.90
2019-01-20T09:22:17.610Z,50.00
2019-01-20T09:24:47.590Z,45.47
2019-01-20T09:27:17.507Z,47.70
2019-01-20T09:29:47.490Z,41.13
2019-01-20T09:32:17.409Z,44.43
2019-01-20T09:34:47.829Z,47.43
2019-01-20T09:37:21.491Z,42.47
2019-01-20T09:39:54.211Z,45.10
2019-01-20T09:42:31.308Z,45.33
2019-01-20T09:45:01.972Z,43.03
2019-01-20T09:47:34.721Z,41.37
2019-01-20T09:50:07.603Z,46.63
2019-01-20T09:52:37.523Z,51.23
2019-01-20T09:55:10.430Z,47.93
2019-01-20T09:57:40.410Z,43.40
2019-01-20T10:00:15.870Z,44.43
2019-01-20T10:02:45.850Z,51.07
2019-01-20T10:05:17.071Z,44.43
2019-01-20T10:07:56.816Z,45.03
2019-01-20T10:10:28.510Z,45.43
2019-01-20T10:13:02.229Z,39.73
2019-01-20T10:15:36.609Z,43.30
2019-01-20T10:18:09.014Z,40.20
2019-01-20T10:20:39.007Z,40.23
2019-01-20T10:23:10.708Z,41.43
2019-01-20T10:25:40.689Z,42.13
2019-01-20T10:28:13.129Z,41.27
2019-01-20T10:30:43.413Z,45.23
2019-01-20T10:33:14.333Z,40.20
2019-01-20T10:35:47.114Z,44.77
2019-01-20T10:38:19.421Z,40.67
2019-01-20T10:40:51.893Z,46.10
2019-01-20T10:43:24.288Z,43.60
2019-01-20T10:45:54.701Z,42.73
2019-01-20T10:48:24.791Z,38.93
2019-01-20T10:50:54.702Z,40.90
2019-01-20T10:53:24.898Z,42.53
2019-01-20T10:55:54.896Z,40.93
2019-01-20T10:58:24.995Z,44.40
2019-01-20T11:00:55.906Z,38.63
2019-01-20T11:03:25.922Z,42.97
2019-01-20T11:05:55.902Z,43.03
2019-01-20T11:08:25.835Z,38.60
2019-01-20T11:10:56.023Z,39.67
2019-01-20T11:13:26.046Z,39.83
2019-01-20T11:15:56.050Z,39.13
2019-01-20T11:18:28.711Z,44.00
2019-01-20T11:20:58.811Z,40.50
2019-01-20T11:23:29.216Z,44.90
2019-01-20T11:25:59.277Z,40.97
2019-01-20T11:28:29.267Z,39.23
2019-01-20T11:30:59.366Z,42.80
2019-01-20T11:33:29.497Z,39.93
2019-01-20T11:35:59.570Z,43.67
2019-01-20T11:38:29.568Z,41.83
2019-01-20T11:40:59.512Z,42.23
2019-01-20T11:43:29.585Z,41.87
2019-01-20T11:45:59.543Z,44.63
2019-01-20T11:48:29.523Z,43.53
2019-01-20T11:50:59.450Z,45.03
2019-01-20T11:53:29.645Z,40.27
2019-01-20T11:55:59.714Z,42.43
2019-01-20T11:58:29.703Z,40.97
2019-01-20T12:00:59.765Z,39.17
2019-01-20T12:03:29.776Z,39.23
2019-01-20T12:05:59.813Z,41.10
2019-01-20T12:08:30.736Z,38.97
2019-01-20T12:11:00.913Z,37.43
2019-01-20T12:13:31.020Z,36.07
2019-01-20T12:16:01.096Z,42.27
2019-01-20T12:18:31.058Z,41.50
2019-01-20T12:21:01.089Z,40.30
2019-01-20T12:23:31.042Z,41.73
2019-01-20T12:26:01.125Z,38.47
2019-01-20T12:28:31.050Z,37.10
2019-01-20T12:31:01.045Z,38.37
2019-01-20T12:33:31.070Z,41.57
2019-01-20T12:36:01.064Z,40.13
2019-01-20T12:38:31.067Z,45.00
2019-01-20T12:41:01.084Z,42.60
2019-01-20T12:43:31.175Z,45.70
2019-01-20T12:46:01.424Z,41.13
2019-01-20T12:48:31.473Z,42.13
2019-01-20T12:51:01.474Z,43.20
2019-01-20T12:53:31.473Z,41.37
2019-01-20T12:56:01.588Z,41.33
2019-01-20T12:58:31.709Z,41.63
2019-01-20T13:01:01.663Z,39.53
2019-01-20T13:03:33.057Z,39.30
2019-01-20T13:06:03.490Z,40.10
2019-01-20T13:08:33.507Z,40.50
2019-01-20T13:11:03.575Z,46.83
2019-01-20T13:13:33.490Z,47.77
2019-01-20T13:16:03.579Z,43.70
2019-01-20T13:18:33.561Z,41.73
2019-01-20T13:21:03.634Z,41.03
2019-01-20T13:23:33.655Z,39.30
2019-01-20T13:26:03.571Z,39.80
2019-01-20T13:28:33.554Z,42.63
2019-01-20T13:31:03.492Z,45.97
2019-01-20T13:33:35.132Z,47.77
2019-01-20T13:38:39.302Z,44.77
2019-01-20T13:41:09.385Z,40.93
2019-01-20T13:43:39.351Z,42.83
2019-01-20T13:46:09.327Z,41.80
2019-01-20T13:48:39.295Z,43.83
2019-01-20T13:51:10.167Z,42.90
2019-01-20T13:53:40.115Z,44.07
2019-01-20T13:56:10.233Z,43.10
2019-01-20T13:58:41.909Z,48.07
2019-01-20T14:01:12.736Z,52.13
2019-01-20T14:03:42.821Z,48.70
2019-01-20T14:06:12.971Z,50.90
2019-01-20T14:08:44.378Z,46.63
2019-01-20T14:11:15.703Z,51.63
2019-01-20T14:13:52.568Z,56.40
2019-01-20T14:16:22.720Z,54.20
2019-01-20T14:18:55.836Z,54.50
2019-01-20T14:21:26.179Z,46.97
2019-01-20T14:23:56.786Z,43.80
2019-01-20T14:26:28.989Z,52.03
2019-01-20T14:29:00.765Z,43.10
2019-01-20T14:31:32.938Z,48.87
2019-01-20T14:34:05.868Z,45.23
2019-01-20T14:36:38.153Z,52.17
2019-01-20T14:39:12.111Z,58.57
2019-01-20T14:41:44.442Z,51.13
2019-01-20T14:44:16.454Z,50.20
2019-01-20T14:46:46.848Z,53.57
2019-01-20T14:49:20.572Z,54.37
2019-01-20T14:51:54.510Z,50.97
2019-01-20T14:54:25.199Z,52.57
2019-01-20T14:56:56.480Z,54.60
2019-01-20T14:59:29.045Z,56.60
2019-01-20T15:02:02.931Z,49.83
2019-01-20T15:04:35.116Z,52.90
2019-01-20T15:07:06.085Z,54.70
2019-01-20T15:09:36.860Z,50.57
2019-01-20T15:12:07.664Z,51.17
2019-01-20T15:14:38.512Z,51.57
2019-01-20T15:17:10.472Z,54.20
2019-01-20T15:19:43.806Z,53.50
2019-01-20T15:22:14.442Z,57.13
2019-01-20T15:27:33.017Z,53.30
2019-01-20T15:30:03.113Z,51.70
2019-01-20T15:32:33.147Z,50.53
2019-01-20T15:35:03.217Z,54.20
2019-01-20T15:37:33.238Z,51.07
2019-01-20T15:40:03.327Z,52.13
2019-01-20T15:42:34.966Z,56.17
2019-01-20T15:45:08.530Z,53.70
2019-01-20T15:47:38.568Z,50.67
2019-01-20T15:50:28.502Z,53.57
2019-01-20T15:52:59.000Z,51.07
2019-01-20T15:55:29.471Z,54.00
2019-01-20T15:58:01.335Z,51.17
2019-01-20T16:00:33.549Z,64.77
2019-01-20T16:03:04.608Z,64.10
2019-01-20T16:05:34.656Z,66.00
2019-01-20T16:08:05.040Z,59.73
2019-01-20T16:10:35.704Z,55.37
2019-01-20T16:13:06.433Z,55.30
2019-01-20T16:15:37.398Z,49.67
2019-01-20T16:18:08.191Z,57.70
2019-01-20T16:20:38.611Z,54.80
2019-01-20T16:23:08.864Z,59.53
2019-01-20T16:25:39.633Z,47.87
2019-01-20T16:28:09.883Z,47.93
2019-01-20T16:30:56.148Z,47.77
2019-01-20T16:33:15.226Z,48.40
2019-01-20T16:35:45.444Z,42.30
2019-01-20T16:38:15.451Z,41.77
2019-01-20T16:40:45.511Z,60.43
2019-01-20T16:43:22.296Z,43.80
2019-01-20T16:45:51.684Z,43.80
2019-01-20T16:48:32.809Z,41.00
2019-01-20T16:51:05.712Z,40.30
2019-01-20T16:53:35.826Z,40.23
2019-01-20T16:56:13.286Z,43.10
2019-01-20T16:58:43.296Z,41.40
2019-01-20T17:01:16.456Z,42.83
2019-01-20T17:03:48.127Z,43.60
2019-01-20T17:06:18.264Z,40.77
2019-01-20T17:08:48.387Z,42.33
2019-01-20T17:11:19.264Z,42.70
2019-01-20T17:16:38.112Z,42.07
2019-01-20T17:19:09.926Z,47.87
2019-01-20T17:21:43.065Z,48.60
2019-01-20T17:24:15.163Z,46.43
2019-01-20T17:26:54.917Z,50.43
2019-01-20T17:29:26.348Z,47.47
2019-01-20T17:31:57.443Z,50.23
2019-01-20T17:37:29.274Z,52.03
2019-01-20T17:39:59.030Z,52.33
2019-01-20T17:42:29.596Z,53.93
2019-01-20T17:44:59.664Z,51.67
2019-01-20T17:47:29.890Z,51.63
2019-01-20T17:50:00.050Z,50.67
2019-01-20T17:52:30.171Z,51.00
2019-01-20T17:55:00.274Z,52.00
2019-01-20T17:57:33.539Z,51.63
2019-01-20T18:00:04.930Z,51.70
2019-01-20T18:02:35.094Z,50.93
2019-01-20T18:05:08.108Z,55.67
2019-01-20T18:07:39.824Z,51.83
2019-01-20T18:10:49.133Z,51.73
2019-01-20T18:13:20.925Z,49.80
2019-01-20T18:15:54.796Z,49.30
2019-01-20T18:18:26.263Z,49.97
2019-01-20T18:20:56.300Z,49.63
2019-01-20T18:23:26.488Z,48.77
2019-01-20T18:25:57.962Z,49.83
2019-01-20T18:28:28.048Z,49.40
2019-01-20T18:31:00.366Z,44.63
2019-01-20T18:33:32.185Z,44.43
2019-01-20T18:36:06.163Z,44.60
2019-01-20T18:38:36.370Z,48.27
2019-01-20T18:41:06.566Z,49.83
2019-01-20T18:43:36.642Z,49.50
2019-01-20T18:46:10.592Z,49.97
2019-01-20T20:05:22.739Z,44.13
2019-01-20T20:12:12.115Z,43.93
2019-01-20T20:56:24.570Z,37.23
2019-01-20T21:05:39.806Z,37.03
2019-01-20T21:11:39.301Z,38.10
2019-01-20T21:14:18.848Z,38.70
2019-01-20T21:17:13.475Z,37.73
2019-01-20T21:19:45.415Z,39.70
2019-01-20T21:22:18.921Z,37.87
2019-01-20T21:24:51.805Z,38.20
2019-01-20T21:27:29.873Z,39.03
2019-01-20T21:30:18.045Z,36.87
2019-01-20T21:32:53.761Z,36.50
2019-01-20T21:35:25.537Z,37.43
2019-01-20T21:48:02.206Z,36.57
2019-01-20T22:49:33.869Z,35.77
2019-01-20T23:02:44.865Z,35.17
2019-01-20T23:05:16.973Z,33.33
2019-01-20T23:10:53.869Z,35.63
2019-01-20T23:20:27.933Z,34.90
2019-01-20T23:22:58.002Z,34.50
2019-01-20T23:28:40.771Z,33.83
2019-01-20T23:31:11.184Z,38.93
2019-01-20T23:33:41.315Z,37.53
